SBSP/CGH METAR and TAF weather

Enter ICAO airport designator
Station Type Date Time Source
SBSP METAR 2022/12/08 14:00 UTC NOAA

SBSP 081400Z 19006KT 150V250 CAVOK 25/14 Q1015


Station Type Date Time Source
SBSP Decoded METAR 2022/12/08 14:00 UTC NOAA

Sao Paulo/Congonhas Aeroporto, Brazil (SBSP) 23-37S 046-39W 802M
Dec 08, 2022 - 09:00 AM EST / 2022.12.08 1400 UTC
Wind: from the S (190 degrees) at 7 MPH (6 KT) (direction variable):0
Visibility: greater than 7 mile(s):0
Temperature: 77 F (25 C)
Dew Point: 57 F (14 C)
Relative Humidity: 50%
Pressure (altimeter): 29.97 in. Hg (1015 hPa)
ob: SBSP 081400Z 19006KT 150V250 CAVOK 25/14 Q1015
cycle: 14

Station Type Date Time Source
SBSP TAF 2022/12/08 12:09 UTC NOAA

TAF SBSP 080800Z 0812/0824 21003KT 8000 BKN020 TX26/0817Z TN20/0823Z
BECMG 0813/0815 CAVOK
BECMG 0819/0821 16005KT
RMK PGL

Example: see airport list